Time;durP1;ratioP1;P1;durP2;ratioP2;P2;SDS_P1;SDS_P2;PMS_P1;PMS_P2;Temp;Humidity;BMP_temperature;BMP_pressure;BME280_temperature;BME280_humidity;BME280_pressure;Samples;Min_cycle;Max_cycle;Signal;HPM_P1;HPM_P2
2022/03/06 00:00:28;;;;;;;12.32;7.30;;;;;;;-2.24;68.62;98947.22;3190184;23;20079;-77
2022/03/06 00:01:58;;;;;;;15.70;7.90;;;;;;;-2.32;68.78;98946.97;3200269;23;20071;-77
2022/03/06 00:03:14;;;;;;;13.10;6.97;;;;;;;-2.36;69.55;98951.97;3206328;23;20074;-77
2022/03/06 00:04:29;;;;;;;12.80;6.95;;;;;;;-2.47;69.41;98944.81;3206874;23;20016;-77
2022/03/06 00:05:45;;;;;;;15.25;6.82;;;;;;;-2.52;69.57;98951.44;3207021;23;20028;-77
2022/03/06 00:07:01;;;;;;;13.55;6.60;;;;;;;-2.60;69.79;98958.03;3207075;23;20051;-79
2022/03/06 00:08:16;;;;;;;13.43;6.53;;;;;;;-2.66;70.33;98951.00;3206519;23;20494;-78
2022/03/06 00:09:32;;;;;;;14.23;6.32;;;;;;;-2.71;70.26;98955.13;3206950;23;20024;-77
2022/03/06 00:10:48;;;;;;;15.35;6.93;;;;;;;-2.75;69.94;98949.03;3207154;23;20013;-77
2022/03/06 00:12:04;;;;;;;19.15;7.15;;;;;;;-2.82;69.88;98951.31;3206582;23;20022;-78
2022/03/06 00:13:20;;;;;;;15.48;7.28;;;;;;;-2.86;70.66;98951.22;3206971;23;20025;-77
2022/03/06 00:14:38;;;;;;;15.57;7.22;;;;;;;-2.84;71.16;98952.16;3206616;23;20099;-79
2022/03/06 00:15:53;;;;;;;14.60;7.22;;;;;;;-2.81;70.70;98947.94;3206919;23;20029;-79
2022/03/06 00:17:09;;;;;;;13.82;7.10;;;;;;;-2.79;70.80;98947.19;3189704;23;20746;-76
2022/03/06 00:18:25;;;;;;;14.55;7.28;;;;;;;-2.78;70.75;98943.81;3196865;23;20049;-77
2022/03/06 00:19:40;;;;;;;13.55;7.15;;;;;;;-2.74;70.74;98944.75;3206478;23;20017;-77
2022/03/06 00:20:58;;;;;;;13.38;6.97;;;;;;;-2.68;71.14;98949.22;3206563;23;20036;-76
2022/03/06 00:22:14;;;;;;;15.82;7.53;;;;;;;-2.64;70.83;98944.25;3206521;23;20031;-76
2022/03/06 00:23:30;;;;;;;16.30;7.82;;;;;;;-2.59;69.89;98952.94;3206673;23;20020;-77
2022/03/06 00:24:46;;;;;;;17.45;8.20;;;;;;;-2.56;69.38;98954.75;3208114;23;20495;-76
2022/03/06 00:26:02;;;;;;;15.60;7.15;;;;;;;-2.52;69.30;98948.03;3208236;23;20717;-77
2022/03/06 00:27:18;;;;;;;15.15;7.47;;;;;;;-2.52;69.19;98948.88;3207404;23;20016;-77
2022/03/06 00:28:34;;;;;;;16.85;7.57;;;;;;;-2.50;69.32;98946.38;3207771;23;20027;-77
2022/03/06 00:29:50;;;;;;;13.88;7.25;;;;;;;-2.50;68.77;98949.84;3207824;23;20383;-76
2022/03/06 00:31:06;;;;;;;14.68;7.15;;;;;;;-2.48;68.88;98947.31;3208312;23;20025;-76
2022/03/06 00:32:21;;;;;;;13.13;6.53;;;;;;;-2.48;68.42;98949.88;3207355;23;20477;-77
2022/03/06 00:33:37;;;;;;;14.57;7.22;;;;;;;-2.46;68.37;98951.66;3207936;23;20443;-76
2022/03/06 00:34:53;;;;;;;16.52;7.55;;;;;;;-2.48;68.71;98948.19;3207708;23;20478;-82
2022/03/06 00:36:08;;;;;;;16.10;7.88;;;;;;;-2.48;68.25;98949.88;3207618;23;20027;-76
2022/03/06 00:37:24;;;;;;;17.67;8.05;;;;;;;-2.49;68.29;98949.03;3207594;23;20020;-78
2022/03/06 00:38:39;;;;;;;16.27;8.15;;;;;;;-2.48;69.51;98943.06;3207504;23;20321;-77
2022/03/06 00:39:55;;;;;;;15.90;7.88;;;;;;;-2.49;69.06;98948.13;3207675;23;20013;-76
2022/03/06 00:41:12;;;;;;;18.95;7.80;;;;;;;-2.51;69.59;98937.84;3207904;23;20047;-78
2022/03/06 00:42:28;;;;;;;18.90;8.90;;;;;;;-2.53;68.07;98941.16;3207708;23;20055;-76
2022/03/06 00:43:43;;;;;;;18.88;8.80;;;;;;;-2.53;68.81;98946.28;3207877;23;20024;-77
2022/03/06 00:44:59;;;;;;;17.13;8.68;;;;;;;-2.56;69.13;98939.38;3207493;23;20017;-76
2022/03/06 00:46:15;;;;;;;16.58;8.57;;;;;;;-2.55;69.66;98938.53;3207935;23;20071;-76
2022/03/06 00:47:31;;;;;;;20.15;9.50;;;;;;;-2.55;69.73;98938.53;3207518;23;20012;-77
2022/03/06 00:48:46;;;;;;;20.67;9.25;;;;;;;-2.52;70.02;98941.19;3207860;23;20012;-76
2022/03/06 00:50:02;;;;;;;13.07;7.53;;;;;;;-2.58;68.68;98938.44;3207600;23;20375;-76
2022/03/06 00:51:18;;;;;;;15.98;8.25;;;;;;;-2.66;68.94;98932.19;3207766;23;20455;-80
2022/03/06 00:52:33;;;;;;;14.52;7.90;;;;;;;-2.68;69.32;98932.16;3207801;23;20074;-80
2022/03/06 00:53:49;;;;;;;16.35;8.02;;;;;;;-2.71;69.97;98927.78;3207385;23;20017;-76
2022/03/06 00:55:06;;;;;;;15.32;8.02;;;;;;;-2.71;69.85;98932.06;3207829;23;20024;-76
2022/03/06 00:56:21;;;;;;;14.13;7.60;;;;;;;-2.71;70.54;98932.91;3190822;23;20060;-76
2022/03/06 00:57:37;;;;;;;17.70;8.32;;;;;;;-2.68;70.50;98931.28;3197675;23;20024;-77
2022/03/06 00:58:53;;;;;;;15.02;8.13;;;;;;;-2.68;70.54;98929.59;3207965;23;20021;-81
2022/03/06 01:00:09;;;;;;;16.25;8.25;;;;;;;-2.72;71.68;98938.88;3207622;23;20032;-77
2022/03/06 01:01:25;;;;;;;15.90;8.60;;;;;;;-2.78;72.32;98935.22;3207702;23;20407;-76
2022/03/06 01:02:40;;;;;;;16.25;8.10;;;;;;;-2.83;72.03;98942.75;3207497;23;20017;-78
2022/03/06 01:03:56;;;;;;;17.73;8.90;;;;;;;-2.84;72.29;98941.00;3207968;23;20443;-78
2022/03/06 01:05:12;;;;;;;14.57;7.68;;;;;;;-2.86;72.03;98947.78;3190968;23;20441;-78
2022/03/06 01:06:27;;;;;;;12.63;7.22;;;;;;;-2.89;72.30;98947.69;3197730;23;20017;-76
2022/03/06 01:07:43;;;;;;;15.20;8.02;;;;;;;-2.92;72.02;98950.16;3211808;23;20059;-76
2022/03/06 01:08:59;;;;;;;15.75;8.32;;;;;;;-2.94;71.90;98947.53;3211965;23;20013;-76
2022/03/06 01:10:15;;;;;;;16.30;7.85;;;;;;;-2.97;71.92;98952.56;3211963;23;20024;-78
2022/03/06 01:11:31;;;;;;;17.13;8.45;;;;;;;-3.01;71.53;98948.13;3209969;23;20343;-78
2022/03/06 01:12:47;;;;;;;14.93;8.13;;;;;;;-3.00;72.27;98952.44;3207294;23;20075;-78
2022/03/06 01:14:03;;;;;;;16.80;8.20;;;;;;;-3.00;71.98;98949.88;3207762;23;20442;-78
2022/03/06 01:15:20;;;;;;;16.65;8.15;;;;;;;-2.96;71.69;98948.28;3207500;23;20021;-78
2022/03/06 01:16:35;;;;;;;17.08;8.15;;;;;;;-2.96;71.60;98950.84;3207325;23;20031;-78
2022/03/06 01:17:51;;;;;;;17.27;7.85;;;;;;;-2.92;71.55;98947.59;3207462;23;20491;-76
2022/03/06 01:19:06;;;;;;;15.25;7.53;;;;;;;-2.89;71.15;98945.97;3207518;23;20375;-77
2022/03/06 01:20:24;;;;;;;14.75;7.38;;;;;;;-2.86;70.55;98946.09;3207478;23;20016;-76
2022/03/06 01:21:39;;;;;;;14.90;8.60;;;;;;;-2.83;70.83;98942.75;3207445;23;20027;-76
2022/03/06 01:22:55;;;;;;;17.20;8.40;;;;;;;-2.82;70.98;98944.50;3207479;23;20051;-76
2022/03/06 01:24:10;;;;;;;19.55;8.73;;;;;;;-2.81;71.44;98943.66;3208020;23;20025;-75
2022/03/06 01:25:27;;;;;;;17.55;8.07;;;;;;;-2.78;71.27;98946.38;3207357;23;20092;-79
2022/03/06 01:26:42;;;;;;;17.67;7.93;;;;;;;-2.78;71.18;98946.38;3207437;23;20059;-78
2022/03/06 01:27:58;;;;;;;15.18;8.50;;;;;;;-2.78;71.29;98946.38;3207273;23;20020;-76
2022/03/06 01:29:14;;;;;;;16.83;8.32;;;;;;;-2.78;71.52;98951.50;3207422;23;20332;-76
2022/03/06 01:30:30;;;;;;;15.68;8.07;;;;;;;-2.79;71.26;98949.75;3207951;23;20031;-76
2022/03/06 01:31:45;;;;;;;13.90;8.10;;;;;;;-2.81;71.63;98946.22;3207648;23;20028;-76
2022/03/06 01:33:01;;;;;;;15.00;7.90;;;;;;;-2.84;71.90;98951.25;3207967;23;20020;-76
2022/03/06 01:34:17;;;;;;;14.20;7.28;;;;;;;-2.87;71.39;98949.47;3207831;23;20044;-78
2022/03/06 01:35:32;;;;;;;16.85;8.23;;;;;;;-2.89;71.81;98940.84;3207765;23;20016;-76
2022/03/06 01:36:48;;;;;;;16.65;7.40;;;;;;;-2.91;70.70;98950.19;3207931;23;20027;-76
2022/03/06 01:38:03;;;;;;;14.45;7.95;;;;;;;-2.99;70.92;98949.91;3207769;23;20032;-77
2022/03/06 01:39:19;;;;;;;15.35;8.60;;;;;;;-3.02;71.92;98956.63;3207859;23;20042;-78
2022/03/06 01:40:35;;;;;;;18.27;7.88;;;;;;;-3.07;71.95;98956.50;3207733;23;20020;-76
2022/03/06 01:41:50;;;;;;;16.23;7.97;;;;;;;-3.08;72.20;98953.84;3208198;23;20485;-76
2022/03/06 01:43:06;;;;;;;13.85;7.53;;;;;;;-3.11;71.89;98954.63;3207989;23;20184;-81
2022/03/06 01:44:22;;;;;;;16.20;8.50;;;;;;;-3.11;72.02;98959.75;3208001;23;20020;-78
2022/03/06 01:45:37;;;;;;;16.33;7.82;;;;;;;-3.09;72.13;98957.25;3208483;23;20051;-78
2022/03/06 01:46:53;;;;;;;15.60;7.97;;;;;;;-3.10;71.31;98956.34;3208697;23;20448;-77
2022/03/06 01:48:09;;;;;;;16.08;8.07;;;;;;;-3.16;71.13;98959.56;3209389;23;20013;-78
2022/03/06 01:49:25;;;;;;;17.23;8.77;;;;;;;-3.19;71.51;98954.34;3213631;23;20025;-75
2022/03/06 01:50:42;;;;;;;16.23;8.63;;;;;;;-3.22;71.92;98954.25;3213120;23;20480;-77
2022/03/06 01:51:57;;;;;;;17.38;8.40;;;;;;;-3.22;71.43;98966.16;3212918;23;20075;-75
2022/03/06 01:53:13;;;;;;;16.67;8.25;;;;;;;-3.26;71.21;98968.63;3213066;23;20020;-77
2022/03/06 01:54:29;;;;;;;17.48;8.15;;;;;;;-3.30;71.41;98960.78;3207995;23;20016;-76
2022/03/06 01:55:45;;;;;;;16.95;8.07;;;;;;;-3.33;71.12;98959.00;3207289;23;20017;-76
2022/03/06 01:57:00;;;;;;;15.82;8.55;;;;;;;-3.37;71.55;98962.25;3207669;23;20025;-76
2022/03/06 01:58:16;;;;;;;16.10;9.48;;;;;;;-3.38;72.28;98967.31;3207162;23;20027;-76
2022/03/06 01:59:32;;;;;;;18.65;8.98;;;;;;;-3.42;71.46;98958.66;3207009;23;20045;-77
2022/03/06 02:00:49;;;;;;;17.02;8.25;;;;;;;-3.47;71.81;98955.91;3207647;23;20503;-77
2022/03/06 02:02:05;;;;;;;17.95;8.68;;;;;;;-3.51;72.19;98954.06;3207305;23;20024;-78
2022/03/06 02:03:20;;;;;;;15.65;7.72;;;;;;;-3.56;72.20;98953.91;3191000;23;20113;-78
2022/03/06 02:04:36;;;;;;;16.88;8.63;;;;;;;-3.61;72.19;98952.88;3197356;23;20031;-76
2022/03/06 02:05:51;;;;;;;17.30;9.15;;;;;;;-3.63;72.68;98956.16;3207618;23;20321;-76
2022/03/06 02:07:07;;;;;;;19.73;8.35;;;;;;;-3.64;72.70;98957.84;3207265;23;20024;-77
2022/03/06 02:08:23;;;;;;;17.95;8.32;;;;;;;-3.66;72.75;98956.06;3207450;23;20020;-76
2022/03/06 02:09:38;;;;;;;18.15;9.25;;;;;;;-3.73;72.71;98954.97;3207692;23;20023;-76
2022/03/06 02:10:54;;;;;;;20.75;9.32;;;;;;;-3.79;72.97;98947.94;3207181;23;20148;-77
2022/03/06 02:12:23;;;;;;;21.05;9.23;;;;;;;-3.83;73.19;98958.88;3207422;23;20447;-77
2022/03/06 02:13:38;;;;;;;17.42;8.57;;;;;;;-3.85;72.82;98957.91;3207542;23;20320;-76
2022/03/06 02:14:56;;;;;;;22.08;9.63;;;;;;;-3.86;73.27;98956.16;3207459;23;20102;-77
2022/03/06 02:16:12;;;;;;;21.52;9.10;;;;;;;-3.89;72.87;98961.19;3207305;23;20048;-78
2022/03/06 02:17:29;;;;;;;18.13;8.52;;;;;;;-3.86;72.91;98954.50;3207354;23;20020;-77
2022/03/06 02:18:44;;;;;;;17.88;9.93;;;;;;;-3.84;72.94;98955.44;3207541;23;20025;-78
2022/03/06 02:20:00;;;;;;;17.58;9.07;;;;;;;-3.88;72.50;98957.81;3207272;23;20397;-77
2022/03/06 02:21:15;;;;;;;21.40;9.70;;;;;;;-3.91;72.82;98961.13;3207537;23;20017;-77
2022/03/06 02:22:33;;;;;;;20.40;9.32;;;;;;;-3.92;72.45;98956.81;3207381;23;20021;-80
2022/03/06 02:23:49;;;;;;;19.23;8.57;;;;;;;-3.97;72.81;98966.00;3207427;23;20016;-77
2022/03/06 02:25:21;;;;;;;19.77;9.65;;;;;;;-4.04;73.08;98966.59;3207505;23;20342;-77
2022/03/06 02:26:38;;;;;;;19.83;8.85;;;;;;;-4.13;73.21;98961.97;3207198;23;20584;-78
2022/03/06 02:27:56;;;;;;;21.85;9.73;;;;;;;-4.20;73.90;98963.41;3206808;23;20074;-78
2022/03/06 02:29:11;;;;;;;21.25;9.60;;;;;;;-4.33;73.41;98954.38;3207323;23;20024;-78
2022/03/06 02:30:30;;;;;;;18.95;9.23;;;;;;;-4.35;73.82;98958.56;3206989;23;20031;-77
2022/03/06 02:31:46;;;;;;;18.42;9.07;;;;;;;-4.34;73.42;98956.88;3206846;23;20024;-78
2022/03/06 02:33:04;;;;;;;21.45;10.05;;;;;;;-4.32;73.59;98956.13;3206825;23;20440;-77
2022/03/06 02:34:20;;;;;;;20.52;9.55;;;;;;;-4.38;73.87;98955.91;3206902;23;20016;-78
2022/03/06 02:35:36;;;;;;;18.83;9.68;;;;;;;-4.38;73.99;98950.78;3207044;23;20092;-78
2022/03/06 02:36:51;;;;;;;18.67;9.20;;;;;;;-4.36;73.88;98950.84;3207448;23;20051;-78
2022/03/06 02:38:07;;;;;;;21.73;9.73;;;;;;;-4.38;73.56;98948.22;3208126;23;20027;-77
2022/03/06 02:39:26;;;;;;;17.60;9.45;;;;;;;-4.35;73.50;98952.56;3208044;23;20318;-77
2022/03/06 02:40:44;;;;;;;21.60;9.73;;;;;;;-4.38;73.80;98953.34;3206922;23;20383;-77
2022/03/06 02:42:01;;;;;;;19.67;9.27;;;;;;;-4.38;74.04;98960.13;3206928;23;20021;-81
2022/03/06 02:43:17;;;;;;;23.80;10.43;;;;;;;-4.44;73.87;98960.75;3190225;23;20056;-77
2022/03/06 02:44:32;;;;;;;18.92;9.80;;;;;;;-4.49;74.08;98955.44;3197808;23;20440;-77
2022/03/06 02:45:48;;;;;;;23.52;10.50;;;;;;;-4.56;73.45;98956.03;3207067;23;20017;-77
2022/03/06 02:47:04;;;;;;;19.33;9.40;;;;;;;-4.54;74.53;98947.63;3206653;23;20102;-77
2022/03/06 02:48:20;;;;;;;21.38;9.80;;;;;;;-4.51;74.96;98954.53;3206927;23;20092;-77
2022/03/06 02:49:36;;;;;;;21.98;10.48;;;;;;;-4.52;75.02;98955.34;3207180;23;20451;-77
2022/03/06 02:50:52;;;;;;;22.15;10.40;;;;;;;-4.50;75.34;98958.81;3207520;23;20024;-78
2022/03/06 02:52:09;;;;;;;19.77;10.55;;;;;;;-4.50;75.33;98956.25;3207283;23;20024;-77
2022/03/06 02:53:25;;;;;;;22.63;9.82;;;;;;;-4.48;75.40;98962.31;3207028;23;20541;-77
2022/03/06 02:54:40;;;;;;;20.42;9.27;;;;;;;-4.49;74.31;98952.03;3207234;23;20017;-77
2022/03/06 02:55:58;;;;;;;20.00;9.88;;;;;;;-4.55;74.75;98963.75;3207303;23;20044;-79
2022/03/06 02:57:14;;;;;;;22.50;9.43;;;;;;;-4.59;75.00;98956.75;3207065;23;20025;-80
2022/03/06 02:58:29;;;;;;;19.73;8.38;;;;;;;-4.59;75.06;98955.91;3206802;23;20028;-77
2022/03/06 02:59:45;;;;;;;25.52;9.93;;;;;;;-4.63;75.23;98956.56;3207135;23;20017;-77
2022/03/06 03:01:01;;;;;;;20.92;9.98;;;;;;;-4.68;74.89;98954.72;3207035;23;20012;-77
2022/03/06 03:02:16;;;;;;;21.98;9.73;;;;;;;-4.71;75.31;98958.81;3206897;23;20019;-78
2022/03/06 03:03:44;;;;;;;24.88;11.48;;;;;;;-4.75;76.18;98964.63;3207215;23;20027;-77
2022/03/06 03:05:00;;;;;;;24.08;10.85;;;;;;;-4.77;76.24;98961.13;3206932;23;20563;-77
2022/03/06 03:06:15;;;;;;;22.88;10.02;;;;;;;-4.69;76.38;98965.75;3207064;23;20499;-77
2022/03/06 03:07:31;;;;;;;22.63;10.43;;;;;;;-4.72;76.54;98965.63;3206000;23;20426;-80
2022/03/06 03:08:48;;;;;;;21.00;10.50;;;;;;;-4.76;76.55;98957.75;3206660;23;20074;-77
2022/03/06 03:10:04;;;;;;;18.58;9.27;;;;;;;-4.82;76.42;98960.94;3206990;23;20044;-78
2022/03/06 03:11:20;;;;;;;26.63;10.98;;;;;;;-4.85;76.65;98963.38;3190854;23;20021;-79
2022/03/06 03:12:36;;;;;;;22.95;10.23;;;;;;;-4.84;76.36;98960.00;3197309;23;20375;-77
2022/03/06 03:13:52;;;;;;;19.08;9.60;;;;;;;-4.88;76.62;98963.25;3206745;23;20027;-78
2022/03/06 03:15:09;;;;;;;24.50;10.23;;;;;;;-4.90;76.75;98959.72;3206951;23;20020;-77
2022/03/06 03:16:24;;;;;;;19.13;9.93;;;;;;;-4.94;77.29;98962.97;3206762;23;20323;-78
2022/03/06 03:17:40;;;;;;;18.58;9.30;;;;;;;-4.91;76.47;98960.53;3207308;23;20035;-80
2022/03/06 03:18:56;;;;;;;20.55;9.88;;;;;;;-4.95;76.84;98959.56;3206698;23;20060;-77
2022/03/06 03:20:13;;;;;;;23.85;10.10;;;;;;;-4.93;76.65;98962.16;3207470;23;20020;-77
2022/03/06 03:21:28;;;;;;;22.13;9.95;;;;;;;-4.93;76.63;98963.03;3206878;23;20012;-78
2022/03/06 03:22:44;;;;;;;19.23;9.70;;;;;;;-4.94;76.50;98968.06;3207088;23;20052;-77
2022/03/06 03:24:00;;;;;;;20.63;10.25;;;;;;;-4.98;76.99;98961.94;3207250;23;20032;-78
2022/03/06 03:25:15;;;;;;;20.23;10.23;;;;;;;-5.01;77.59;98961.81;3207172;23;20343;-77
2022/03/06 03:26:31;;;;;;;22.15;10.02;;;;;;;-5.05;77.39;98968.47;3207208;23;20324;-78
2022/03/06 03:27:47;;;;;;;20.63;9.85;;;;;;;-5.14;76.65;98963.84;3207031;23;20013;-77
2022/03/06 03:29:02;;;;;;;22.30;9.70;;;;;;;-5.18;76.26;98969.66;3206837;23;20055;-77
2022/03/06 03:30:20;;;;;;;23.33;10.23;;;;;;;-5.23;76.15;98970.25;3206637;23;20062;-78
2022/03/06 03:31:35;;;;;;;20.30;9.77;;;;;;;-5.28;75.86;98972.59;3207102;23;20024;-77
2022/03/06 03:32:51;;;;;;;18.75;9.40;;;;;;;-5.32;76.01;98974.13;3207200;23;20028;-77
2022/03/06 03:34:07;;;;;;;18.50;10.10;;;;;;;-5.35;76.15;98975.69;3190489;23;20025;-78
2022/03/06 03:35:22;;;;;;;20.60;9.57;;;;;;;-5.40;76.45;98967.84;3196726;23;20021;-77
2022/03/06 03:36:39;;;;;;;20.80;10.02;;;;;;;-5.46;76.78;98970.97;3206825;23;20021;-79
2022/03/06 03:37:55;;;;;;;20.95;10.65;;;;;;;-5.48;76.66;98977.69;3206856;23;20036;-77
2022/03/06 03:39:11;;;;;;;21.00;10.00;;;;;;;-5.51;77.11;98971.59;3206780;23;20649;-77
2022/03/06 03:40:27;;;;;;;18.73;8.90;;;;;;;-5.49;76.81;98967.41;3206982;23;20047;-78
2022/03/06 03:41:43;;;;;;;21.35;9.98;;;;;;;-5.48;76.79;98971.72;3206834;23;20447;-75
2022/03/06 03:42:58;;;;;;;20.23;9.88;;;;;;;-5.49;76.74;98970.84;3207196;23;20020;-78
2022/03/06 03:44:14;;;;;;;20.73;9.07;;;;;;;-5.51;76.74;98974.13;3207194;23;20020;-80
2022/03/06 03:45:30;;;;;;;24.73;10.32;;;;;;;-5.55;76.54;98974.00;3206929;23;20463;-78
2022/03/06 03:46:45;;;;;;;20.33;9.43;;;;;;;-5.57;76.37;98974.72;3207017;23;20024;-79
2022/03/06 03:48:01;;;;;;;19.92;9.57;;;;;;;-5.67;76.41;98981.09;3206570;23;20016;-77
2022/03/06 03:49:17;;;;;;;23.30;10.35;;;;;;;-5.72;76.88;98980.88;3207023;23;20024;-78
2022/03/06 03:50:32;;;;;;;24.77;10.52;;;;;;;-5.75;76.60;98978.19;3206799;23;20016;-76
2022/03/06 03:51:48;;;;;;;21.42;10.02;;;;;;;-5.74;77.04;98977.38;3206880;23;20013;-76
2022/03/06 03:53:03;;;;;;;19.95;9.85;;;;;;;-5.72;76.96;98980.03;3207347;23;20020;-76
2022/03/06 03:54:19;;;;;;;20.83;10.65;;;;;;;-5.77;76.87;98989.13;3206505;23;20453;-76
2022/03/06 03:55:34;;;;;;;20.20;9.95;;;;;;;-5.79;76.82;98986.53;3206671;23;20027;-77
2022/03/06 03:56:50;;;;;;;24.65;11.10;;;;;;;-5.77;76.83;98982.38;3206682;23;20320;-80
2022/03/06 03:58:06;;;;;;;19.02;9.20;;;;;;;-5.74;76.56;98979.06;3206597;23;20016;-76
2022/03/06 03:59:21;;;;;;;22.90;10.43;;;;;;;-5.75;76.67;98985.84;3206610;23;20075;-77
2022/03/06 04:00:37;;;;;;;18.17;9.60;;;;;;;-5.70;76.81;98984.38;3206505;23;20435;-76
2022/03/06 04:01:52;;;;;;;18.20;9.25;;;;;;;-5.67;77.16;98984.50;3206882;23;20742;-77
2022/03/06 04:03:08;;;;;;;22.92;9.30;;;;;;;-5.61;77.22;98983.91;3206897;23;20020;-76
2022/03/06 04:04:26;;;;;;;19.08;9.63;;;;;;;-5.58;77.88;98983.19;3207038;23;20086;-77
2022/03/06 04:05:41;;;;;;;20.58;9.32;;;;;;;-5.54;77.40;98990.16;3206916;23;20020;-80
2022/03/06 04:06:57;;;;;;;23.02;10.15;;;;;;;-5.49;77.90;98992.94;3206792;23;20016;-77
2022/03/06 04:08:13;;;;;;;23.25;10.00;;;;;;;-5.44;77.63;98986.38;3206668;23;20021;-76
2022/03/06 04:09:28;;;;;;;23.40;9.88;;;;;;;-5.38;77.40;98989.19;3206890;23;20017;-77
2022/03/06 04:10:44;;;;;;;20.45;9.60;;;;;;;-5.33;77.38;98990.25;3206535;23;20017;-76
2022/03/06 04:12:00;;;;;;;22.70;11.02;;;;;;;-5.34;77.85;98991.06;3206915;23;20071;-80
2022/03/06 04:13:16;;;;;;;21.50;10.50;;;;;;;-5.28;78.73;98993.00;3206920;23;20021;-76
2022/03/06 04:14:31;;;;;;;24.05;10.70;;;;;;;-5.28;78.32;98991.34;3190469;23;20033;-76
2022/03/06 04:15:47;;;;;;;23.17;10.35;;;;;;;-5.19;78.71;98992.53;3196922;23;20173;-76
2022/03/06 04:17:03;;;;;;;24.98;11.95;;;;;;;-5.21;78.96;98992.50;3206537;23;20023;-76
2022/03/06 04:18:18;;;;;;;26.73;11.20;;;;;;;-5.20;78.53;98995.91;3206913;23;20023;-76
2022/03/06 04:19:34;;;;;;;21.60;10.73;;;;;;;-5.19;78.29;98990.88;3206497;23;20021;-76
2022/03/06 04:20:50;;;;;;;24.85;10.75;;;;;;;-5.20;78.61;98991.69;3207044;23;20095;-76
2022/03/06 04:22:05;;;;;;;25.75;11.35;;;;;;;-5.19;78.77;98993.44;3206910;23;20028;-76
2022/03/06 04:23:21;;;;;;;19.95;10.18;;;;;;;-5.20;78.47;98993.34;3206805;23;20021;-76
2022/03/06 04:24:37;;;;;;;23.33;11.65;;;;;;;-5.21;78.37;98992.50;3206900;23;20020;-76
2022/03/06 04:25:52;;;;;;;23.88;11.30;;;;;;;-5.19;78.07;98995.97;3206737;23;20332;-76
2022/03/06 04:27:08;;;;;;;21.75;9.98;;;;;;;-5.16;78.09;99001.22;3206649;23;20044;-76
2022/03/06 04:28:24;;;;;;;24.38;11.32;;;;;;;-5.14;78.26;98997.03;3206129;23;20043;-77
2022/03/06 04:29:39;;;;;;;22.17;10.50;;;;;;;-5.13;78.40;98995.38;3206873;23;20351;-76
2022/03/06 04:30:55;;;;;;;21.35;10.05;;;;;;;-5.12;78.45;98999.69;3206695;23;20012;-76
2022/03/06 04:32:10;;;;;;;23.13;10.85;;;;;;;-5.07;78.86;99002.44;3206366;23;20013;-76
2022/03/06 04:33:26;;;;;;;21.17;10.73;;;;;;;-5.07;78.73;98995.63;3206846;23;20031;-78
2022/03/06 04:34:41;;;;;;;24.67;10.82;;;;;;;-5.05;78.47;98998.25;3206754;23;20023;-77
2022/03/06 04:35:57;;;;;;;21.38;11.13;;;;;;;-5.04;78.81;98993.19;3207023;23;20021;-77
2022/03/06 04:37:13;;;;;;;21.95;10.18;;;;;;;-5.01;78.38;98992.47;3206880;23;20320;-77
2022/03/06 04:38:28;;;;;;;20.83;10.75;;;;;;;-4.98;78.74;98990.03;3206556;23;20016;-77
2022/03/06 04:39:44;;;;;;;24.73;10.90;;;;;;;-4.98;78.69;98993.47;3207185;23;20028;-77
2022/03/06 04:40:59;;;;;;;24.27;10.30;;;;;;;-5.00;78.58;98994.22;3206993;23;20078;-77
2022/03/06 04:42:15;;;;;;;23.63;10.93;;;;;;;-5.01;78.92;98993.34;3207365;23;20025;-78
2022/03/06 04:43:31;;;;;;;24.33;11.43;;;;;;;-5.02;78.79;98998.38;3206625;23;20016;-77
2022/03/06 04:44:46;;;;;;;21.25;9.73;;;;;;;-5.05;79.09;98995.72;3207083;23;20032;-77
2022/03/06 04:46:02;;;;;;;23.80;11.18;;;;;;;-5.04;78.80;98992.34;3207225;23;20327;-77
2022/03/06 04:47:18;;;;;;;21.05;10.27;;;;;;;-5.00;78.36;98996.78;3206960;23;20102;-78
2022/03/06 04:48:34;;;;;;;23.50;10.70;;;;;;;-4.98;78.79;98997.69;3207017;23;20024;-77
2022/03/06 04:49:49;;;;;;;23.15;11.45;;;;;;;-4.97;78.75;99000.34;3207377;23;20352;-77
2022/03/06 04:51:05;;;;;;;23.92;10.63;;;;;;;-4.95;78.31;98997.84;3207345;23;20025;-79
2022/03/06 04:52:20;;;;;;;22.65;11.30;;;;;;;-4.93;78.03;98997.91;3207468;23;20020;-77
2022/03/06 04:53:36;;;;;;;22.13;11.05;;;;;;;-4.94;78.86;98998.72;3207892;23;20024;-76
2022/03/06 04:54:52;;;;;;;24.33;10.93;;;;;;;-4.93;79.20;98993.69;3207709;23;20016;-76
2022/03/06 04:56:09;;;;;;;22.67;11.48;;;;;;;-4.90;78.54;98991.25;3208508;23;20013;-79
2022/03/06 04:57:24;;;;;;;24.67;10.98;;;;;;;-4.86;78.81;98989.72;3210986;23;20455;-76
2022/03/06 04:58:40;;;;;;;21.65;10.85;;;;;;;-4.83;78.92;98990.69;3210994;23;20031;-76
2022/03/06 04:59:55;;;;;;;19.75;9.95;;;;;;;-4.80;78.71;98989.09;3210714;23;20032;-76
2022/03/06 05:01:11;;;;;;;22.65;10.68;;;;;;;-4.82;78.75;98986.47;3209567;23;20020;-77
2022/03/06 05:02:27;;;;;;;23.67;11.10;;;;;;;-4.88;79.24;98992.19;3206653;23;20050;-77
2022/03/06 05:03:42;;;;;;;27.10;11.45;;;;;;;-4.87;79.21;98990.53;3206897;23;20028;-76
2022/03/06 05:04:58;;;;;;;23.02;10.95;;;;;;;-4.90;79.33;98992.91;3206898;23;20592;-76
2022/03/06 05:06:14;;;;;;;21.65;10.95;;;;;;;-4.88;79.08;98992.19;3206883;23;20020;-76
2022/03/06 05:07:29;;;;;;;23.13;10.05;;;;;;;-4.84;79.26;98991.50;3207127;23;20025;-76
2022/03/06 05:08:45;;;;;;;18.88;10.15;;;;;;;-4.79;78.87;98998.50;3206602;23;20375;-76
2022/03/06 05:10:01;;;;;;;23.33;10.85;;;;;;;-4.73;78.89;99001.31;3207106;23;20027;-77
2022/03/06 05:11:16;;;;;;;19.35;9.75;;;;;;;-4.73;78.82;98999.63;3207277;23;20016;-76
2022/03/06 05:12:32;;;;;;;21.50;9.80;;;;;;;-4.74;78.78;98997.91;3207556;23;20067;-76
2022/03/06 05:13:48;;;;;;;19.98;10.02;;;;;;;-4.73;78.80;98993.66;3206017;23;20066;-76
2022/03/06 05:15:05;;;;;;;22.70;10.57;;;;;;;-4.74;78.81;98997.00;3207467;23;20460;-78
2022/03/06 05:16:21;;;;;;;22.70;11.05;;;;;;;-4.72;79.12;98995.38;3191013;23;20444;-76
2022/03/06 05:17:38;;;;;;;25.80;10.90;;;;;;;-4.70;79.11;98997.22;3197317;23;20048;-76
2022/03/06 05:18:54;;;;;;;22.33;10.77;;;;;;;-4.69;78.59;98998.06;3206799;23;20083;-77
2022/03/06 05:20:11;;;;;;;22.33;10.57;;;;;;;-4.67;78.85;98996.47;3207826;23;20017;-77
2022/03/06 05:21:27;;;;;;;22.98;10.77;;;;;;;-4.66;79.28;98993.09;3207469;23;20044;-77
2022/03/06 05:22:43;;;;;;;24.70;10.75;;;;;;;-4.58;79.21;98994.28;3189878;23;20035;-77
2022/03/06 05:23:59;;;;;;;25.85;11.70;;;;;;;-4.49;79.33;98998.91;3197562;23;20052;-76
2022/03/06 05:25:15;;;;;;;29.05;11.55;;;;;;;-4.50;79.14;98998.84;3207553;23;20050;-76
2022/03/06 05:26:30;;;;;;;24.33;11.23;;;;;;;-4.46;78.48;98993.94;3207813;23;20360;-77
2022/03/06 05:27:46;;;;;;;24.83;11.48;;;;;;;-4.40;78.49;98993.28;3207132;23;20015;-78
2022/03/06 05:29:03;;;;;;;21.35;10.88;;;;;;;-4.41;78.57;98994.09;3207211;23;20027;-77
2022/03/06 05:30:19;;;;;;;24.15;10.70;;;;;;;-4.46;78.67;98993.03;3190848;23;20020;-77
2022/03/06 05:31:35;;;;;;;22.73;10.27;;;;;;;-4.41;79.83;98996.66;3197568;23;20403;-76
2022/03/06 05:32:53;;;;;;;23.38;10.48;;;;;;;-4.46;79.92;98999.03;3207408;23;20044;-77
2022/03/06 05:34:09;;;;;;;25.67;11.07;;;;;;;-4.46;79.76;98993.03;3207499;23;20573;-78
2022/03/06 05:35:24;;;;;;;25.15;11.55;;;;;;;-4.45;79.98;98999.91;3207103;23;20020;-79
2022/03/06 05:36:40;;;;;;;25.70;11.07;;;;;;;-4.38;78.86;98995.91;3206604;23;20020;-78
2022/03/06 05:37:56;;;;;;;23.83;10.77;;;;;;;-4.35;78.90;98996.91;3206481;23;20096;-77
2022/03/06 05:39:12;;;;;;;22.92;10.55;;;;;;;-4.36;79.07;99001.97;3207039;23;20470;-77
2022/03/06 05:40:28;;;;;;;26.50;11.80;;;;;;;-4.29;79.15;99006.53;3207449;23;20024;-77
2022/03/06 05:41:43;;;;;;;22.67;10.48;;;;;;;-4.35;79.20;99003.69;3207270;23;20085;-77
2022/03/06 05:42:59;;;;;;;25.60;10.98;;;;;;;-4.44;79.65;99001.66;3207107;23;20056;-77
2022/03/06 05:44:15;;;;;;;29.85;11.63;;;;;;;-4.49;80.05;98993.78;3207185;23;20017;-77
2022/03/06 05:45:31;;;;;;;21.77;10.57;;;;;;;-4.49;79.92;98996.34;3207280;23;20143;-77
2022/03/06 05:46:46;;;;;;;25.85;11.85;;;;;;;-4.51;79.94;98992.84;3206948;23;20099;-77
2022/03/06 05:48:02;;;;;;;24.88;11.95;;;;;;;-4.50;79.84;98992.03;3207009;23;20463;-77
2022/03/06 05:49:17;;;;;;;23.55;10.57;;;;;;;-4.41;80.09;98994.09;3207448;23;20698;-77
2022/03/06 05:50:34;;;;;;;22.15;10.40;;;;;;;-4.41;79.95;98996.66;3207099;23;20161;-77
2022/03/06 05:51:49;;;;;;;22.35;10.20;;;;;;;-4.38;79.53;98996.81;3207718;23;20015;-77